This is the latest recevied weather packets stored in our database for station/object 5B4ALR-13. If no packets are shown the sender has not sent any weather packets the latest 10 day(s).
| Time | Temp. | Humidity | Pressure | Rain* | Wind** | Luminosity | Snow |
|---|---|---|---|---|---|---|---|
| 1777879865 | 17.78° C | 67% | 1008.2 hPa | 0 mm | - | - | - |
| 1777879270 | 17.22° C | 67% | 1008.2 hPa | 0 mm | - | - | - |
| 1777878665 | 15.56° C | 71% | 1008.1 hPa | 0 mm | - | - | - |
| 1777878065 | 15.56° C | 71% | 1008.1 hPa | 0 mm | - | - | - |
| 1777877465 | 16.11° C | 68% | 1008.2 hPa | 0 mm | - | - | - |
| 1777876870 | 16.11° C | 67% | 1008.2 hPa | 0 mm | - | - | - |
| 1777876267 | 16.11° C | 66% | 1008 hPa | 0 mm | - | - | - |
| 1777875666 | 16.67° C | 63% | 1007.5 hPa | 0 mm | - | - | - |
| 1777875065 | 16.67° C | 64% | 1007.7 hPa | 0 mm | - | - | - |
| 1777874465 | 16.67° C | 64% | 1007.7 hPa | 0 mm | - | - | - |
| 1777873865 | 16.11° C | 65% | 1007.7 hPa | 0 mm | - | - | - |
| 1777873265 | 16.11° C | 64% | 1007.8 hPa | 0 mm | - | - | - |
| 1777872665 | 16.11° C | 65% | 1007.8 hPa | 0 mm | - | - | - |
| 1777872065 | 16.11° C | 68% | 1007.6 hPa | 0 mm | - | - | - |
| 1777871465 | 16.67° C | 67% | 1007.7 hPa | 0 mm | - | - | - |
| 1777870865 | 15.56° C | 69% | 1007.8 hPa | 0 mm | - | - | - |
| 1777870265 | 15° C | 71% | 1007.8 hPa | 0 mm | - | - | - |
| 1777869665 | 14.44° C | 72% | 1007.8 hPa | 0 mm | - | - | - |
| 1777869065 | 13.89° C | 73% | 1007.9 hPa | 0 mm | - | - | - |
| 1777868465 | 14.44° C | 71% | 1008 hPa | 0.25 mm | - | - | - |
| 1777867865 | 14.44° C | 69% | 1007.9 hPa | 0.25 mm | - | - | - |
| 1777867265 | 14.44° C | 70% | 1007.9 hPa | 0.25 mm | - | - | - |
| 1777866665 | 13.89° C | 70% | 1008 hPa | 0.25 mm | - | - | - |
| 1777866065 | 13.89° C | 70% | 1008.2 hPa | 0.25 mm | - | - | - |
| 1777865465 | 13.89° C | 71% | 1008.2 hPa | 0.25 mm | - | - | - |
* Rain latest hour (hover to see other rain measurements)
** Current wind speed in m/s (hover to see current wind gust speed)